createdAt,value
2023-01-12T00:00:50.751Z,6.10
2023-01-12T00:03:38.881Z,6.20
2023-01-12T00:06:27.397Z,6.20
2023-01-12T00:09:15.821Z,6.30
2023-01-12T00:12:07.125Z,6.40
2023-01-12T00:14:55.651Z,6.50
2023-01-12T00:17:43.782Z,6.50
2023-01-12T00:20:31.918Z,6.60
2023-01-12T00:23:22.047Z,6.60
2023-01-12T00:26:10.587Z,6.60
2023-01-12T00:29:00.190Z,6.60
2023-01-12T00:31:48.602Z,6.70
2023-01-12T00:34:37.095Z,6.70
2023-01-12T00:37:26.081Z,6.70
2023-01-12T00:40:14.332Z,6.80
2023-01-12T00:43:19.905Z,6.80
2023-01-12T00:46:10.592Z,6.80
2023-01-12T00:48:58.761Z,6.80
2023-01-12T00:51:46.966Z,6.80
2023-01-12T00:54:35.685Z,6.80
2023-01-12T00:57:23.841Z,6.80
2023-01-12T01:00:12.978Z,6.80
2023-01-12T01:03:02.549Z,6.80
2023-01-12T01:05:50.804Z,6.80
2023-01-12T01:08:39.001Z,6.80
2023-01-12T01:11:27.127Z,6.90
2023-01-12T01:14:15.277Z,6.90
2023-01-12T01:17:03.391Z,6.80
2023-01-12T01:19:52.848Z,6.90
2023-01-12T01:22:41.076Z,6.90
2023-01-12T01:25:29.198Z,7.00
2023-01-12T01:28:17.814Z,7.00
2023-01-12T01:31:07.292Z,7.10
2023-01-12T01:33:55.401Z,7.10
2023-01-12T01:36:44.920Z,7.10
2023-01-12T01:39:33.110Z,7.10
2023-01-12T01:42:28.785Z,7.10
2023-01-12T01:45:17.295Z,7.10
2023-01-12T01:48:07.053Z,7.10
2023-01-12T01:50:59.486Z,7.20
2023-01-12T01:53:50.687Z,7.20
2023-01-12T01:56:38.684Z,7.20
2023-01-12T01:59:32.144Z,7.20
2023-01-12T02:02:20.977Z,7.20
2023-01-12T02:05:10.205Z,7.20
2023-01-12T02:08:03.887Z,7.20
2023-01-12T02:10:54.917Z,7.30
2023-01-12T02:14:00.411Z,7.30
2023-01-12T02:16:58.851Z,7.30
2023-01-12T02:20:13.625Z,7.40
2023-01-12T02:23:48.509Z,7.40
2023-01-12T02:27:11.954Z,7.40
2023-01-12T02:30:23.331Z,7.40
2023-01-12T02:33:24.952Z,7.50
2023-01-12T02:36:22.312Z,7.50
2023-01-12T02:39:16.513Z,7.60
2023-01-12T02:42:29.534Z,7.60
2023-01-12T02:45:37.797Z,7.60
2023-01-12T02:48:34.399Z,7.70
2023-01-12T02:51:29.236Z,7.70
2023-01-12T02:54:21.240Z,7.80
2023-01-12T02:57:11.549Z,7.80
2023-01-12T03:00:01.769Z,7.90
2023-01-12T03:02:50.701Z,7.90
2023-01-12T03:05:42.337Z,7.90
2023-01-12T03:08:32.308Z,7.90
2023-01-12T03:11:23.228Z,7.90
2023-01-12T03:14:13.872Z,7.90
2023-01-12T03:17:06.878Z,7.90
2023-01-12T03:19:58.052Z,7.90
2023-01-12T03:22:48.079Z,7.90
2023-01-12T03:25:39.565Z,7.90
2023-01-12T03:28:33.238Z,7.90
2023-01-12T03:31:22.954Z,8.00
2023-01-12T03:34:11.923Z,8.00
2023-01-12T03:37:06.011Z,8.00
2023-01-12T03:40:02.094Z,8.00
2023-01-12T03:42:56.387Z,8.00
2023-01-12T03:45:48.943Z,8.00
2023-01-12T03:48:41.362Z,8.10
2023-01-12T03:51:34.451Z,8.10
2023-01-12T03:54:24.055Z,8.10
2023-01-12T03:57:15.285Z,8.10
2023-01-12T04:00:05.429Z,8.10
2023-01-12T04:03:04.220Z,8.10
2023-01-12T04:05:52.417Z,8.20
2023-01-12T04:08:40.529Z,8.10
2023-01-12T04:11:46.269Z,8.10
2023-01-12T04:14:35.731Z,8.20
2023-01-12T04:17:25.329Z,8.20
2023-01-12T04:20:14.519Z,8.20
2023-01-12T04:23:01.919Z,8.20
2023-01-12T04:25:50.032Z,8.20
2023-01-12T04:28:38.164Z,8.30
2023-01-12T04:31:27.736Z,8.20
2023-01-12T04:34:15.896Z,8.30
2023-01-12T04:37:04.556Z,8.30
2023-01-12T04:39:52.719Z,8.30
2023-01-12T04:43:08.735Z,8.30
2023-01-12T04:45:56.976Z,8.40
2023-01-12T04:48:46.614Z,8.40
2023-01-12T04:51:34.961Z,8.40
2023-01-12T04:54:23.084Z,8.40
2023-01-12T04:57:11.208Z,8.40
2023-01-12T04:59:59.326Z,8.50
2023-01-12T05:02:47.491Z,8.50
2023-01-12T05:05:37.455Z,8.50
2023-01-12T05:08:43.100Z,8.60
2023-01-12T05:11:31.414Z,8.50
2023-01-12T05:14:19.534Z,8.50
2023-01-12T05:17:07.696Z,8.50
2023-01-12T05:19:55.788Z,8.60
2023-01-12T05:22:45.280Z,8.60
2023-01-12T05:25:33.634Z,8.60
2023-01-12T05:28:21.721Z,8.60
2023-01-12T05:31:11.966Z,8.60
2023-01-12T05:34:00.044Z,8.70
2023-01-12T05:36:48.477Z,8.60
2023-01-12T05:39:37.997Z,8.70
2023-01-12T05:42:43.803Z,8.70
2023-01-12T05:45:31.960Z,8.70
2023-01-12T05:48:20.073Z,8.70
2023-01-12T05:51:10.071Z,8.70
2023-01-12T05:53:58.261Z,8.70
2023-01-12T05:56:49.812Z,8.70
2023-01-12T05:59:38.011Z,8.60
2023-01-12T06:02:26.202Z,8.60
2023-01-12T06:05:14.397Z,8.50
2023-01-12T06:08:02.873Z,8.50
2023-01-12T06:10:50.978Z,8.50
2023-01-12T06:13:57.602Z,8.50
2023-01-12T06:16:45.752Z,8.50
2023-01-12T06:19:34.689Z,8.50
2023-01-12T06:22:22.777Z,8.50
2023-01-12T06:25:11.464Z,8.50
2023-01-12T06:27:59.598Z,8.50
2023-01-12T06:30:56.364Z,8.50
2023-01-12T06:33:44.773Z,8.50
2023-01-12T06:36:32.886Z,8.60
2023-01-12T06:39:20.965Z,8.60
2023-01-12T06:42:26.854Z,8.60
2023-01-12T06:45:15.145Z,8.60
2023-01-12T06:48:05.005Z,8.60
2023-01-12T06:50:54.197Z,8.60
2023-01-12T06:53:42.257Z,8.70
2023-01-12T06:56:30.370Z,8.70
2023-01-12T06:59:18.471Z,8.80
2023-01-12T07:02:06.881Z,8.80
2023-01-12T07:04:56.353Z,8.80
2023-01-12T07:07:44.586Z,8.80
2023-01-12T07:10:33.328Z,8.80
2023-01-12T07:13:22.065Z,8.80
2023-01-12T07:16:10.272Z,8.80
2023-01-12T07:18:58.786Z,8.80
2023-01-12T07:21:49.371Z,8.80
2023-01-12T07:24:37.494Z,8.80
2023-01-12T07:27:25.602Z,8.80
2023-01-12T07:30:14.295Z,8.80
2023-01-12T07:33:08.327Z,8.90
2023-01-12T07:35:59.897Z,8.90
2023-01-12T07:38:49.385Z,8.90
2023-01-12T07:41:54.948Z,8.90
2023-01-12T07:44:43.078Z,8.90
2023-01-12T07:47:31.278Z,8.90
2023-01-12T07:50:19.469Z,8.90
2023-01-12T07:53:07.685Z,9.00
2023-01-12T07:56:00.426Z,9.00
2023-01-12T07:58:48.977Z,9.00
2023-01-12T08:01:37.206Z,9.00
2023-01-12T08:04:25.708Z,9.00
2023-01-12T08:07:14.810Z,9.10
2023-01-12T08:10:02.927Z,9.10
2023-01-12T08:12:53.031Z,9.10
2023-01-12T08:15:44.549Z,9.10
2023-01-12T08:18:37.971Z,9.10
2023-01-12T08:21:29.501Z,9.20
2023-01-12T08:24:20.941Z,9.20
2023-01-12T08:27:10.862Z,9.20
2023-01-12T08:30:02.642Z,9.20
2023-01-12T08:32:51.147Z,9.20
2023-01-12T08:35:39.433Z,9.20
2023-01-12T08:38:27.607Z,9.20
2023-01-12T08:41:33.588Z,9.20
2023-01-12T08:44:21.899Z,9.20
2023-01-12T08:47:19.101Z,9.20
2023-01-12T08:50:08.792Z,9.20
2023-01-12T08:52:57.734Z,9.30
2023-01-12T08:55:55.543Z,9.30
2023-01-12T08:58:44.034Z,9.40
2023-01-12T09:01:32.465Z,9.40
2023-01-12T09:04:21.985Z,9.40
2023-01-12T09:07:11.247Z,9.50
2023-01-12T09:09:59.316Z,9.60
2023-01-12T09:12:47.534Z,9.60
2023-01-12T09:15:35.594Z,9.70
2023-01-12T09:18:23.670Z,9.80
2023-01-12T09:21:15.377Z,9.80
2023-01-12T09:24:03.487Z,9.70
2023-01-12T09:26:51.609Z,9.60
2023-01-12T09:29:39.833Z,9.50
2023-01-12T09:32:36.127Z,9.50
2023-01-12T09:35:24.770Z,9.40
2023-01-12T09:38:14.187Z,9.40
2023-01-12T09:41:04.547Z,9.40
2023-01-12T09:44:10.158Z,9.40
2023-01-12T09:47:02.089Z,9.40
2023-01-12T09:50:08.099Z,9.30
2023-01-12T09:53:00.678Z,9.30
2023-01-12T09:55:57.729Z,9.40
2023-01-12T09:59:09.069Z,9.40
2023-01-12T10:01:57.579Z,9.50
2023-01-12T10:04:47.808Z,9.50
2023-01-12T10:07:36.399Z,9.60
2023-01-12T10:10:24.603Z,9.60
2023-01-12T10:13:15.390Z,9.80
2023-01-12T10:16:09.991Z,9.80
2023-01-12T10:19:02.349Z,9.80
2023-01-12T10:21:52.136Z,9.90
2023-01-12T10:24:42.779Z,9.90
2023-01-12T10:27:30.944Z,10.00
2023-01-12T10:30:24.878Z,10.00
2023-01-12T10:33:16.652Z,10.10
2023-01-12T10:36:09.605Z,10.10
2023-01-12T10:39:01.014Z,10.20
2023-01-12T10:42:34.765Z,10.20
2023-01-12T10:45:25.312Z,10.30
2023-01-12T10:48:22.721Z,10.30
2023-01-12T10:51:26.129Z,10.30
2023-01-12T10:54:18.504Z,10.30
2023-01-12T10:57:16.662Z,10.30
2023-01-12T11:00:05.828Z,10.30
2023-01-12T11:02:55.545Z,10.40
2023-01-12T11:05:44.776Z,10.40
2023-01-12T11:08:32.891Z,10.40
2023-01-12T11:11:30.226Z,10.40
2023-01-12T11:14:27.024Z,10.40
2023-01-12T11:17:33.106Z,10.50
2023-01-12T11:20:31.264Z,10.60
2023-01-12T11:23:28.101Z,10.60
2023-01-12T11:26:23.547Z,10.60
2023-01-12T11:29:27.158Z,10.70
2023-01-12T11:32:20.174Z,10.80
2023-01-12T11:35:22.244Z,10.90
2023-01-12T11:38:17.394Z,10.90
2023-01-12T11:41:09.664Z,10.90
2023-01-12T11:44:05.197Z,10.90
2023-01-12T11:47:00.535Z,10.90
2023-01-12T11:49:54.698Z,11.10
2023-01-12T11:52:43.133Z,11.10
2023-01-12T11:55:50.616Z,11.00
2023-01-12T11:58:49.091Z,10.90
2023-01-12T12:01:44.063Z,10.90
2023-01-12T12:04:48.901Z,11.00
2023-01-12T12:07:49.568Z,10.90
2023-01-12T12:10:48.717Z,10.90
2023-01-12T12:13:44.743Z,10.90
2023-01-12T12:16:42.985Z,10.90
2023-01-12T12:19:39.604Z,10.90
2023-01-12T12:22:42.727Z,10.80
2023-01-12T12:25:38.367Z,10.80
2023-01-12T12:28:49.706Z,10.80
2023-01-12T12:31:54.820Z,10.80
2023-01-12T12:35:02.291Z,10.90
2023-01-12T12:37:58.223Z,11.00
2023-01-12T12:41:20.779Z,11.00
2023-01-12T12:44:42.865Z,11.00
2023-01-12T12:47:53.076Z,11.00
2023-01-12T12:50:51.028Z,11.00
2023-01-12T12:53:42.020Z,11.00
2023-01-12T12:56:32.235Z,11.00
2023-01-12T12:59:52.890Z,11.10
2023-01-12T13:02:54.770Z,11.10
2023-01-12T13:05:45.222Z,11.20
2023-01-12T13:08:36.723Z,11.20
2023-01-12T13:11:55.857Z,11.20
2023-01-12T13:14:44.489Z,11.20
2023-01-12T13:17:45.568Z,11.20
2023-01-12T13:20:48.435Z,11.20
2023-01-12T13:23:47.854Z,11.20
2023-01-12T13:26:42.812Z,11.20
2023-01-12T13:29:42.368Z,11.20
2023-01-12T13:32:51.017Z,11.20
2023-01-12T13:36:06.517Z,11.20
2023-01-12T13:39:11.224Z,11.10
2023-01-12T13:42:17.282Z,11.10
2023-01-12T13:45:10.311Z,11.20
2023-01-12T13:48:00.224Z,11.20
2023-01-12T13:50:51.222Z,11.20
2023-01-12T13:53:39.162Z,11.20
2023-01-12T13:56:28.035Z,11.20
2023-01-12T13:59:19.068Z,11.20
2023-01-12T14:02:17.893Z,11.20
2023-01-12T14:05:28.533Z,11.30
2023-01-12T14:08:50.759Z,11.30
2023-01-12T14:12:07.822Z,11.30
2023-01-12T14:15:35.031Z,11.30
2023-01-12T14:18:25.298Z,11.30
2023-01-12T14:21:26.996Z,11.30
2023-01-12T14:24:16.997Z,11.30
2023-01-12T14:27:16.697Z,11.30
2023-01-12T14:30:05.403Z,11.20
2023-01-12T14:32:55.180Z,11.30
2023-01-12T14:35:46.888Z,11.30
2023-01-12T14:38:41.543Z,11.30
2023-01-12T14:41:48.738Z,11.30
2023-01-12T14:44:58.545Z,11.30
2023-01-12T14:47:46.645Z,11.20
2023-01-12T14:50:36.876Z,11.20
2023-01-12T14:53:35.255Z,11.10
2023-01-12T14:56:29.479Z,11.20
2023-01-12T14:59:22.778Z,11.10
2023-01-12T15:02:32.648Z,11.10
2023-01-12T15:05:25.370Z,11.10
2023-01-12T15:08:26.763Z,11.10
2023-01-12T15:11:15.530Z,11.10
2023-01-12T15:14:06.922Z,11.10
2023-01-12T15:17:13.299Z,11.10
2023-01-12T15:20:18.738Z,11.10
2023-01-12T15:23:29.312Z,11.10
2023-01-12T15:26:17.633Z,11.00
2023-01-12T15:29:07.070Z,11.10
2023-01-12T15:31:55.169Z,11.10
2023-01-12T15:34:43.328Z,11.00
2023-01-12T15:37:31.726Z,11.10
2023-01-12T15:40:20.479Z,11.10
2023-01-12T15:43:14.090Z,11.00
2023-01-12T15:46:03.549Z,11.00
2023-01-12T15:48:51.681Z,11.00
2023-01-12T15:51:40.165Z,11.00
2023-01-12T15:54:28.323Z,11.00
2023-01-12T15:57:16.752Z,11.00
2023-01-12T16:00:05.410Z,11.00
2023-01-12T16:02:54.871Z,11.00
2023-01-12T16:05:42.935Z,10.90
2023-01-12T16:08:31.055Z,10.80
2023-01-12T16:11:24.314Z,10.80
2023-01-12T16:14:13.027Z,10.80
2023-01-12T16:17:01.136Z,10.80
2023-01-12T16:19:50.548Z,10.80
2023-01-12T16:22:38.688Z,10.80
2023-01-12T16:25:26.837Z,10.80
2023-01-12T16:28:14.990Z,10.80
2023-01-12T16:31:06.940Z,10.80
2023-01-12T16:33:55.021Z,10.80
2023-01-12T16:36:44.452Z,10.80
2023-01-12T16:39:33.239Z,10.80
2023-01-12T16:42:21.362Z,10.80
2023-01-12T16:45:10.725Z,10.80
2023-01-12T16:47:58.822Z,10.80
2023-01-12T16:50:47.375Z,10.90
2023-01-12T16:53:36.836Z,10.80
2023-01-12T16:56:24.949Z,10.80
2023-01-12T16:59:13.017Z,10.80
2023-01-12T17:02:02.451Z,10.80
2023-01-12T17:04:52.196Z,10.80
2023-01-12T17:07:40.596Z,10.80
2023-01-12T17:10:30.122Z,10.80
2023-01-12T17:13:18.320Z,10.80
2023-01-12T17:16:09.208Z,10.80
2023-01-12T17:18:57.425Z,10.80
2023-01-12T17:21:46.208Z,10.80
2023-01-12T17:24:35.662Z,10.80
2023-01-12T17:27:25.611Z,10.80
2023-01-12T17:30:14.242Z,10.80
2023-01-12T17:33:02.645Z,10.80
2023-01-12T17:35:50.795Z,10.80
2023-01-12T17:38:39.784Z,10.80
2023-01-12T17:41:45.713Z,10.90
2023-01-12T17:44:35.103Z,10.80
2023-01-12T17:47:23.311Z,10.80
2023-01-12T17:50:13.489Z,10.80
2023-01-12T17:53:01.624Z,10.90
2023-01-12T17:55:50.999Z,10.80
2023-01-12T17:58:40.807Z,10.80
2023-01-12T18:01:32.310Z,10.70
2023-01-12T18:04:21.490Z,10.60
2023-01-12T18:07:09.598Z,10.70
2023-01-12T18:09:57.710Z,10.60
2023-01-12T18:12:45.935Z,10.60
2023-01-12T18:15:34.134Z,10.70
2023-01-12T18:18:23.644Z,10.70
2023-01-12T18:21:14.115Z,10.70
2023-01-12T18:24:02.937Z,10.60
2023-01-12T18:26:51.063Z,10.60
2023-01-12T18:29:39.475Z,10.50
2023-01-12T18:32:27.567Z,10.50
2023-01-12T18:35:17.164Z,10.40
2023-01-12T18:38:06.758Z,10.40
2023-01-12T18:41:14.786Z,10.40
2023-01-12T18:44:03.726Z,10.50
2023-01-12T18:47:09.707Z,10.50
2023-01-12T18:49:58.601Z,10.50
2023-01-12T18:53:05.579Z,10.50
2023-01-12T18:55:57.004Z,10.50
2023-01-12T18:58:45.421Z,10.40
2023-01-12T19:01:33.734Z,10.40
2023-01-12T19:04:31.647Z,10.50
2023-01-12T19:07:28.636Z,10.50
2023-01-12T19:10:18.523Z,10.60
2023-01-12T19:13:24.325Z,10.60
2023-01-12T19:16:32.663Z,10.50
2023-01-12T19:19:23.967Z,10.50
2023-01-12T19:22:28.677Z,10.50
2023-01-12T19:25:37.392Z,10.50
2023-01-12T19:28:35.643Z,10.40
2023-01-12T19:31:23.938Z,10.40
2023-01-12T19:34:12.290Z,10.40
2023-01-12T19:37:00.434Z,10.40
2023-01-12T19:40:00.699Z,10.40
2023-01-12T19:43:08.164Z,10.40
2023-01-12T19:45:59.400Z,10.40
2023-01-12T19:48:47.629Z,10.40
2023-01-12T19:51:35.802Z,10.30
2023-01-12T19:54:23.903Z,10.40
2023-01-12T19:57:11.973Z,10.40
2023-01-12T20:00:01.783Z,10.40
2023-01-12T20:02:50.179Z,10.30
2023-01-12T20:05:39.065Z,10.30
2023-01-12T20:08:27.215Z,10.30
2023-01-12T20:11:16.201Z,10.20
2023-01-12T20:14:04.507Z,10.20
2023-01-12T20:16:54.019Z,10.20
2023-01-12T20:19:42.171Z,10.20
2023-01-12T20:22:30.289Z,10.20
2023-01-12T20:25:18.582Z,10.20
2023-01-12T20:28:06.767Z,10.30
2023-01-12T20:30:54.977Z,10.30
2023-01-12T20:33:44.531Z,10.20
2023-01-12T20:36:32.798Z,10.20
2023-01-12T20:39:21.113Z,10.10
2023-01-12T20:42:09.396Z,10.10
2023-01-12T20:44:57.627Z,10.10
2023-01-12T20:47:45.897Z,10.10
2023-01-12T20:50:35.373Z,10.00
2023-01-12T20:53:26.811Z,10.00
2023-01-12T20:56:15.101Z,10.10
2023-01-12T20:59:03.213Z,10.10
2023-01-12T21:01:51.601Z,10.10
2023-01-12T21:04:39.811Z,10.10
2023-01-12T21:07:29.258Z,10.10
2023-01-12T21:10:17.712Z,10.10
2023-01-12T21:13:06.380Z,10.10
2023-01-12T21:15:58.875Z,10.10
2023-01-12T21:18:48.031Z,10.10
2023-01-12T21:21:36.134Z,10.10
2023-01-12T21:24:26.492Z,10.00
2023-01-12T21:27:14.687Z,10.00
2023-01-12T21:30:02.795Z,9.90
2023-01-12T21:32:52.818Z,9.90
2023-01-12T21:35:41.141Z,9.90
2023-01-12T21:38:29.373Z,9.80
2023-01-12T21:41:21.102Z,9.80
2023-01-12T21:44:09.228Z,9.80
2023-01-12T21:46:57.336Z,9.80
2023-01-12T21:49:45.413Z,9.70
2023-01-12T21:52:34.230Z,9.70
2023-01-12T21:55:22.292Z,9.70
2023-01-12T21:58:11.791Z,9.70
2023-01-12T22:01:01.257Z,9.70
2023-01-12T22:03:49.486Z,9.70
2023-01-12T22:06:37.623Z,9.70
2023-01-12T22:09:26.018Z,9.70
2023-01-12T22:12:14.111Z,9.60
2023-01-12T22:15:03.607Z,9.60
2023-01-12T22:17:52.128Z,9.60
2023-01-12T22:20:42.247Z,9.70
2023-01-12T22:23:30.615Z,9.70
2023-01-12T22:26:19.438Z,9.60
2023-01-12T22:29:07.552Z,9.60
2023-01-12T22:31:56.992Z,9.60
2023-01-12T22:34:45.151Z,9.60
2023-01-12T22:37:36.496Z,9.60
2023-01-12T22:40:24.662Z,9.60
2023-01-12T22:43:28.986Z,9.60
2023-01-12T22:46:19.493Z,9.60
2023-01-12T22:49:09.022Z,9.60
2023-01-12T22:51:57.105Z,9.60
2023-01-12T22:54:45.222Z,9.60
2023-01-12T22:57:33.349Z,9.60
2023-01-12T23:00:22.548Z,9.60
2023-01-12T23:03:12.563Z,9.70
2023-01-12T23:06:02.701Z,9.70
2023-01-12T23:08:53.371Z,9.70
2023-01-12T23:11:41.945Z,9.80
2023-01-12T23:14:30.655Z,9.80
2023-01-12T23:17:18.926Z,9.90
2023-01-12T23:20:09.127Z,9.90
2023-01-12T23:22:58.772Z,10.00
2023-01-12T23:25:48.403Z,10.00
2023-01-12T23:28:39.020Z,10.00
2023-01-12T23:31:30.204Z,10.00
2023-01-12T23:34:18.644Z,10.00
2023-01-12T23:37:06.934Z,10.00
2023-01-12T23:39:56.497Z,10.00
2023-01-12T23:42:44.751Z,10.00
2023-01-12T23:45:34.533Z,10.00
2023-01-12T23:48:23.927Z,10.10
2023-01-12T23:51:12.163Z,10.10
2023-01-12T23:54:02.757Z,10.10
2023-01-12T23:56:53.480Z,10.10
2023-01-12T23:59:41.785Z,10.10
